sensor_id;sensor_type;location;lat;lon;timestamp;pressure;altitude;pressure_sealevel;temperature;humidity
71774;BME280;59607;52.130;5.430;2024-01-16T00:00:09;100963.19;;;0.41;100.00
71774;BME280;59607;52.130;5.430;2024-01-16T00:02:39;100971.09;;;0.38;100.00
71774;BME280;59607;52.130;5.430;2024-01-16T00:05:07;100960.22;;;0.33;100.00
71774;BME280;59607;52.130;5.430;2024-01-16T00:07:39;100971.56;;;0.30;100.00
71774;BME280;59607;52.130;5.430;2024-01-16T00:10:09;100972.50;;;0.29;100.00
71774;BME280;59607;52.130;5.430;2024-01-16T00:12:43;100975.00;;;0.31;100.00
71774;BME280;59607;52.130;5.430;2024-01-16T00:15:09;100970.66;;;0.31;100.00
71774;BME280;59607;52.130;5.430;2024-01-16T00:17:54;100969.84;;;0.31;100.00
71774;BME280;59607;52.130;5.430;2024-01-16T00:20:26;100979.97;;;0.34;100.00
71774;BME280;59607;52.130;5.430;2024-01-16T00:22:52;100987.44;;;0.39;100.00
71774;BME280;59607;52.130;5.430;2024-01-16T00:25:27;100991.28;;;0.46;100.00
71774;BME280;59607;52.130;5.430;2024-01-16T00:27:54;101004.84;;;0.49;100.00
71774;BME280;59607;52.130;5.430;2024-01-16T00:30:24;101015.72;;;0.55;100.00
71774;BME280;59607;52.130;5.430;2024-01-16T00:32:51;101003.00;;;0.66;100.00
71774;BME280;59607;52.130;5.430;2024-01-16T00:35:18;100996.63;;;0.72;100.00
71774;BME280;59607;52.130;5.430;2024-01-16T00:37:45;100977.81;;;0.70;100.00
71774;BME280;59607;52.130;5.430;2024-01-16T00:40:17;100969.06;;;0.72;100.00
71774;BME280;59607;52.130;5.430;2024-01-16T00:42:43;100970.25;;;0.67;100.00
71774;BME280;59607;52.130;5.430;2024-01-16T00:45:11;100973.50;;;0.56;100.00
71774;BME280;59607;52.130;5.430;2024-01-16T00:47:41;100986.88;;;0.48;100.00
71774;BME280;59607;52.130;5.430;2024-01-16T00:50:08;100974.34;;;0.42;100.00
71774;BME280;59607;52.130;5.430;2024-01-16T00:52:38;100977.81;;;0.41;100.00
71774;BME280;59607;52.130;5.430;2024-01-16T00:55:05;100986.50;;;0.40;100.00
71774;BME280;59607;52.130;5.430;2024-01-16T00:57:32;100982.47;;;0.35;100.00
71774;BME280;59607;52.130;5.430;2024-01-16T01:00:09;100988.63;;;0.33;100.00
71774;BME280;59607;52.130;5.430;2024-01-16T01:02:38;101003.47;;;0.29;100.00
71774;BME280;59607;52.130;5.430;2024-01-16T01:05:10;101001.88;;;0.27;100.00
71774;BME280;59607;52.130;5.430;2024-01-16T01:07:37;100995.78;;;0.28;100.00
71774;BME280;59607;52.130;5.430;2024-01-16T01:10:08;101000.41;;;0.22;100.00
71774;BME280;59607;52.130;5.430;2024-01-16T01:12:35;100999.56;;;0.22;100.00
71774;BME280;59607;52.130;5.430;2024-01-16T01:15:01;101001.31;;;0.21;100.00
71774;BME280;59607;52.130;5.430;2024-01-16T01:17:28;100999.00;;;0.17;100.00
71774;BME280;59607;52.130;5.430;2024-01-16T01:20:14;101000.59;;;0.19;100.00
71774;BME280;59607;52.130;5.430;2024-01-16T01:22:41;101000.59;;;0.19;100.00
71774;BME280;59607;52.130;5.430;2024-01-16T01:25:08;100998.84;;;0.20;100.00
71774;BME280;59607;52.130;5.430;2024-01-16T01:27:36;100999.75;;;0.19;100.00
71774;BME280;59607;52.130;5.430;2024-01-16T01:30:07;100998.84;;;0.20;100.00
71774;BME280;59607;52.130;5.430;2024-01-16T01:32:39;100999.84;;;0.17;100.00
71774;BME280;59607;52.130;5.430;2024-01-16T01:35:07;100994.59;;;0.19;100.00
71774;BME280;59607;52.130;5.430;2024-01-16T01:37:34;100996.34;;;0.18;100.00
71774;BME280;59607;52.130;5.430;2024-01-16T01:40:01;100990.28;;;0.19;100.00
71774;BME280;59607;52.130;5.430;2024-01-16T01:42:27;100990.28;;;0.19;100.00
71774;BME280;59607;52.130;5.430;2024-01-16T01:44:54;100997.09;;;0.20;100.00
71774;BME280;59607;52.130;5.430;2024-01-16T01:47:20;100998.66;;;0.23;100.00
71774;BME280;59607;52.130;5.430;2024-01-16T01:49:50;101000.78;;;0.31;100.00
71774;BME280;59607;52.130;5.430;2024-01-16T01:52:18;101004.66;;;0.38;100.00
71774;BME280;59607;52.130;5.430;2024-01-16T01:54:44;101006.22;;;0.41;100.00
71774;BME280;59607;52.130;5.430;2024-01-16T01:57:12;101029.91;;;0.47;100.00
71774;BME280;59607;52.130;5.430;2024-01-16T01:59:38;101056.38;;;0.51;100.00
71774;BME280;59607;52.130;5.430;2024-01-16T02:02:07;101044.41;;;0.50;100.00
71774;BME280;59607;52.130;5.430;2024-01-16T02:04:34;101053.78;;;0.51;100.00
71774;BME280;59607;52.130;5.430;2024-01-16T02:07:08;101037.47;;;0.51;100.00
71774;BME280;59607;52.130;5.430;2024-01-16T02:09:37;101046.03;;;0.51;100.00
71774;BME280;59607;52.130;5.430;2024-01-16T02:12:10;101044.94;;;0.55;100.00
71774;BME280;59607;52.130;5.430;2024-01-16T02:14:36;101032.66;;;0.59;100.00
71774;BME280;59607;52.130;5.430;2024-01-16T02:17:05;101029.81;;;0.64;100.00
71774;BME280;59607;52.130;5.430;2024-01-16T02:19:35;101026.84;;;0.70;100.00
71774;BME280;59607;52.130;5.430;2024-01-16T02:22:04;101028.53;;;0.71;100.00
71774;BME280;59607;52.130;5.430;2024-01-16T02:24:49;101022.16;;;0.77;100.00
71774;BME280;59607;52.130;5.430;2024-01-16T02:27:18;101010.91;;;0.78;100.00
71774;BME280;59607;52.130;5.430;2024-01-16T02:29:45;101004.06;;;0.77;100.00
71774;BME280;59607;52.130;5.430;2024-01-16T02:32:21;100999.47;;;0.67;100.00
71774;BME280;59607;52.130;5.430;2024-01-16T02:34:48;101002.44;;;0.61;100.00
71774;BME280;59607;52.130;5.430;2024-01-16T02:37:19;101009.53;;;0.57;100.00
71774;BME280;59607;52.130;5.430;2024-01-16T02:39:49;100999.22;;;0.57;100.00
71774;BME280;59607;52.130;5.430;2024-01-16T02:42:16;101005.13;;;0.59;100.00
71774;BME280;59607;52.130;5.430;2024-01-16T02:44:45;101011.75;;;0.64;100.00
71774;BME280;59607;52.130;5.430;2024-01-16T02:47:16;101015.81;;;0.68;100.00
71774;BME280;59607;52.130;5.430;2024-01-16T02:49:43;101013.03;;;0.71;100.00
71774;BME280;59607;52.130;5.430;2024-01-16T02:52:12;101010.38;;;0.72;100.00
71774;BME280;59607;52.130;5.430;2024-01-16T02:54:39;101010.09;;;0.77;100.00
71774;BME280;59607;52.130;5.430;2024-01-16T02:57:11;101002.63;;;0.72;100.00
71774;BME280;59607;52.130;5.430;2024-01-16T02:59:46;101007.59;;;0.76;100.00
71774;BME280;59607;52.130;5.430;2024-01-16T03:02:27;101006.94;;;0.72;100.00
71774;BME280;59607;52.130;5.430;2024-01-16T03:04:56;101008.44;;;0.76;100.00
71774;BME280;59607;52.130;5.430;2024-01-16T03:07:27;101003.28;;;0.76;100.00
71774;BME280;59607;52.130;5.430;2024-01-16T03:09:53;100998.91;;;0.77;100.00
71774;BME280;59607;52.130;5.430;2024-01-16T03:12:26;101008.34;;;0.78;100.00
71774;BME280;59607;52.130;5.430;2024-01-16T03:14:52;101011.53;;;0.81;100.00
71774;BME280;59607;52.130;5.430;2024-01-16T03:17:27;101016.41;;;0.86;100.00
71774;BME280;59607;52.130;5.430;2024-01-16T03:19:54;101018.00;;;0.89;100.00
71774;BME280;59607;52.130;5.430;2024-01-16T03:22:20;101030.63;;;0.93;100.00
71774;BME280;59607;52.130;5.430;2024-01-16T03:24:56;101041.41;;;1.00;100.00
71774;BME280;59607;52.130;5.430;2024-01-16T03:27:26;101035.31;;;1.01;100.00
71774;BME280;59607;52.130;5.430;2024-01-16T03:29:55;101035.41;;;1.00;100.00
71774;BME280;59607;52.130;5.430;2024-01-16T03:32:22;101031.72;;;1.04;100.00
71774;BME280;59607;52.130;5.430;2024-01-16T03:34:57;101024.41;;;1.10;100.00
71774;BME280;59607;52.130;5.430;2024-01-16T03:37:24;101019.88;;;1.14;100.00
71774;BME280;59607;52.130;5.430;2024-01-16T03:39:50;101019.50;;;1.20;100.00
71774;BME280;59607;52.130;5.430;2024-01-16T03:42:24;101021.88;;;1.23;100.00
71774;BME280;59607;52.130;5.430;2024-01-16T03:44:53;101028.28;;;1.18;100.00
71774;BME280;59607;52.130;5.430;2024-01-16T03:47:40;101024.56;;;1.22;100.00
71774;BME280;59607;52.130;5.430;2024-01-16T03:50:07;101021.88;;;1.23;100.00
71774;BME280;59607;52.130;5.430;2024-01-16T03:52:33;101026.13;;;1.25;100.00
71774;BME280;59607;52.130;5.430;2024-01-16T03:55:00;101024.34;;;1.25;100.00
71774;BME280;59607;52.130;5.430;2024-01-16T03:57:32;101025.75;;;1.31;100.00
71774;BME280;59607;52.130;5.430;2024-01-16T03:59:59;101018.34;;;1.39;100.00
71774;BME280;59607;52.130;5.430;2024-01-16T04:02:27;101020.72;;;1.42;100.00
71774;BME280;59607;52.130;5.430;2024-01-16T04:04:57;101013.25;;;1.38;100.00
71774;BME280;59607;52.130;5.430;2024-01-16T04:07:23;101013.66;;;1.31;100.00
71774;BME280;59607;52.130;5.430;2024-01-16T04:10:00;101019.09;;;1.27;100.00
71774;BME280;59607;52.130;5.430;2024-01-16T04:12:27;101014.97;;;1.24;100.00
71774;BME280;59607;52.130;5.430;2024-01-16T04:14:56;101012.78;;;1.18;100.00
71774;BME280;59607;52.130;5.430;2024-01-16T04:17:30;100999.22;;;1.14;100.00
71774;BME280;59607;52.130;5.430;2024-01-16T04:19:59;101001.16;;;1.10;100.00
71774;BME280;59607;52.130;5.430;2024-01-16T04:22:28;100990.19;;;1.07;100.00
71774;BME280;59607;52.130;5.430;2024-01-16T04:24:55;100980.69;;;1.07;100.00
71774;BME280;59607;52.130;5.430;2024-01-16T04:27:24;100988.31;;;1.09;100.00
71774;BME280;59607;52.130;5.430;2024-01-16T04:29:55;100985.66;;;1.10;100.00
71774;BME280;59607;52.130;5.430;2024-01-16T04:32:21;100992.59;;;1.10;100.00
71774;BME280;59607;52.130;5.430;2024-01-16T04:34:48;100993.50;;;1.09;100.00
71774;BME280;59607;52.130;5.430;2024-01-16T04:37:18;100993.59;;;1.07;100.00
71774;BME280;59607;52.130;5.430;2024-01-16T04:39:44;100988.31;;;1.09;100.00
71774;BME280;59607;52.130;5.430;2024-01-16T04:42:25;100991.94;;;1.06;100.00
71774;BME280;59607;52.130;5.430;2024-01-16T04:44:59;100997.94;;;1.07;100.00
71774;BME280;59607;52.130;5.430;2024-01-16T04:47:25;100994.53;;;1.06;100.00
71774;BME280;59607;52.130;5.430;2024-01-16T04:49:52;100990.09;;;1.08;100.00
71774;BME280;59607;52.130;5.430;2024-01-16T04:52:24;100994.53;;;1.06;100.00
71774;BME280;59607;52.130;5.430;2024-01-16T04:54:51;101000.34;;;1.10;100.00
71774;BME280;59607;52.130;5.430;2024-01-16T04:57:21;100996.63;;;1.14;100.00
71774;BME280;59607;52.130;5.430;2024-01-16T04:59:50;100997.91;;;1.21;100.00
71774;BME280;59607;52.130;5.430;2024-01-16T05:02:17;100988.28;;;1.23;100.00
71774;BME280;59607;52.130;5.430;2024-01-16T05:05:01;100988.38;;;1.22;100.00
71774;BME280;59607;52.130;5.430;2024-01-16T05:07:33;100987.66;;;1.20;100.00
71774;BME280;59607;52.130;5.430;2024-01-16T05:10:03;100984.53;;;1.15;100.00
71774;BME280;59607;52.130;5.430;2024-01-16T05:12:34;100977.19;;;1.08;100.00
71774;BME280;59607;52.130;5.430;2024-01-16T05:15:00;100968.16;;;1.01;100.00
71774;BME280;59607;52.130;5.430;2024-01-16T05:17:27;100967.69;;;0.94;100.00
71774;BME280;59607;52.130;5.430;2024-01-16T05:20:01;100966.91;;;0.94;100.00
71774;BME280;59607;52.130;5.430;2024-01-16T05:22:30;100954.97;;;0.91;100.00
71774;BME280;59607;52.130;5.430;2024-01-16T05:25:04;100961.72;;;0.94;100.00
71774;BME280;59607;52.130;5.430;2024-01-16T05:27:30;100956.75;;;0.91;100.00
71774;BME280;59607;52.130;5.430;2024-01-16T05:29:59;100953.53;;;0.87;100.00
71774;BME280;59607;52.130;5.430;2024-01-16T05:32:31;100948.84;;;0.79;100.00
71774;BME280;59607;52.130;5.430;2024-01-16T05:34:58;100950.50;;;0.80;100.00
71774;BME280;59607;52.130;5.430;2024-01-16T05:37:38;100941.41;;;0.75;100.00
71774;BME280;59607;52.130;5.430;2024-01-16T05:40:12;100935.69;;;0.69;100.00
71774;BME280;59607;52.130;5.430;2024-01-16T05:42:39;100941.84;;;0.67;100.00
71774;BME280;59607;52.130;5.430;2024-01-16T05:45:07;100943.16;;;0.59;100.00
71774;BME280;59607;52.130;5.430;2024-01-16T05:47:38;100932.94;;;0.58;100.00
71774;BME280;59607;52.130;5.430;2024-01-16T05:50:05;100930.25;;;0.59;100.00
71774;BME280;59607;52.130;5.430;2024-01-16T05:52:38;100930.34;;;0.58;100.00
71774;BME280;59607;52.130;5.430;2024-01-16T05:55:11;100930.56;;;0.55;100.00
71774;BME280;59607;52.130;5.430;2024-01-16T05:57:46;100925.69;;;0.50;100.00
71774;BME280;59607;52.130;5.430;2024-01-16T06:00:19;100931.84;;;0.47;100.00
71774;BME280;59607;52.130;5.430;2024-01-16T06:02:48;100935.25;;;0.48;100.00
71774;BME280;59607;52.130;5.430;2024-01-16T06:05:15;100932.78;;;0.46;100.00
71774;BME280;59607;52.130;5.430;2024-01-16T06:07:42;100925.03;;;0.46;100.00
71774;BME280;59607;52.130;5.430;2024-01-16T06:10:13;100919.03;;;0.46;100.00
71774;BME280;59607;52.130;5.430;2024-01-16T06:12:40;100923.38;;;0.45;100.00
71774;BME280;59607;52.130;5.430;2024-01-16T06:15:14;100925.78;;;0.48;100.00
71774;BME280;59607;52.130;5.430;2024-01-16T06:17:41;100927.22;;;0.53;100.00
71774;BME280;59607;52.130;5.430;2024-01-16T06:20:10;100934.13;;;0.52;100.00
71774;BME280;59607;52.130;5.430;2024-01-16T06:22:40;100933.94;;;0.55;100.00
71774;BME280;59607;52.130;5.430;2024-01-16T06:25:12;100928.44;;;0.61;100.00
71774;BME280;59607;52.130;5.430;2024-01-16T06:27:41;100935.88;;;0.66;100.00
71774;BME280;59607;52.130;5.430;2024-01-16T06:30:11;100939.06;;;0.70;100.00
71774;BME280;59607;52.130;5.430;2024-01-16T06:32:43;100946.56;;;0.75;100.00
71774;BME280;59607;52.130;5.430;2024-01-16T06:35:12;100958.16;;;0.82;100.00
71774;BME280;59607;52.130;5.430;2024-01-16T06:37:55;100949.38;;;0.84;100.00
71774;BME280;59607;52.130;5.430;2024-01-16T06:40:27;100951.25;;;0.82;100.00
71774;BME280;59607;52.130;5.430;2024-01-16T06:42:53;100949.38;;;0.84;100.00
71774;BME280;59607;52.130;5.430;2024-01-16T06:45:19;100950.13;;;0.86;100.00
71774;BME280;59607;52.130;5.430;2024-01-16T06:47:52;100952.41;;;0.91;100.00
71774;BME280;59607;52.130;5.430;2024-01-16T06:50:19;100946.22;;;0.94;100.00
71774;BME280;59607;52.130;5.430;2024-01-16T06:52:48;100942.72;;;0.95;100.00
71774;BME280;59607;52.130;5.430;2024-01-16T06:55:23;100940.03;;;0.96;100.00
71774;BME280;59607;52.130;5.430;2024-01-16T06:57:56;100937.25;;;1.00;100.00
71774;BME280;59607;52.130;5.430;2024-01-16T07:00:22;100950.16;;;1.00;100.00
71774;BME280;59607;52.130;5.430;2024-01-16T07:02:54;100950.91;;;1.02;100.00
71774;BME280;59607;52.130;5.430;2024-01-16T07:05:29;100943.81;;;1.05;100.00
71774;BME280;59607;52.130;5.430;2024-01-16T07:08:11;100944.72;;;1.04;100.00
71774;BME280;59607;52.130;5.430;2024-01-16T07:10:38;100947.19;;;1.06;100.00
71774;BME280;59607;52.130;5.430;2024-01-16T07:13:04;100954.94;;;1.06;100.00
71774;BME280;59607;52.130;5.430;2024-01-16T07:15:31;100946.28;;;1.07;100.00
71774;BME280;59607;52.130;5.430;2024-01-16T07:18:03;100943.81;;;1.05;100.00
71774;BME280;59607;52.130;5.430;2024-01-16T07:20:39;100947.84;;;1.09;100.00
71774;BME280;59607;52.130;5.430;2024-01-16T07:23:06;100953.00;;;1.09;100.00
71774;BME280;59607;52.130;5.430;2024-01-16T07:25:40;100953.63;;;1.13;100.00
71774;BME280;59607;52.130;5.430;2024-01-16T07:28:09;100947.25;;;1.19;100.00
71774;BME280;59607;52.130;5.430;2024-01-16T07:30:38;100957.19;;;1.25;100.00
71774;BME280;59607;52.130;5.430;2024-01-16T07:33:09;100962.34;;;1.25;100.00
71774;BME280;59607;52.130;5.430;2024-01-16T07:35:42;100957.91;;;1.27;100.00
71774;BME280;59607;52.130;5.430;2024-01-16T07:38:34;100957.38;;;1.22;100.00
71774;BME280;59607;52.130;5.430;2024-01-16T07:41:04;100961.63;;;1.23;100.00
71774;BME280;59607;52.130;5.430;2024-01-16T07:43:33;100961.94;;;1.18;100.00
71774;BME280;59607;52.130;5.430;2024-01-16T07:46:03;100969.28;;;1.25;100.00
71774;BME280;59607;52.130;5.430;2024-01-16T07:48:30;100967.31;;;1.28;100.00
71774;BME280;59607;52.130;5.430;2024-01-16T07:51:00;100967.94;;;1.32;100.00
71774;BME280;59607;52.130;5.430;2024-01-16T07:53:30;100970.44;;;1.33;100.00
71774;BME280;59607;52.130;5.430;2024-01-16T07:55:56;100968.59;;;1.35;100.00
71774;BME280;59607;52.130;5.430;2024-01-16T07:58:26;100964.88;;;1.40;100.00
71774;BME280;59607;52.130;5.430;2024-01-16T08:00:52;100971.63;;;1.42;100.00
71774;BME280;59607;52.130;5.430;2024-01-16T08:03:18;100971.50;;;1.44;100.00
71774;BME280;59607;52.130;5.430;2024-01-16T08:05:45;100964.41;;;1.47;100.00
71774;BME280;59607;52.130;5.430;2024-01-16T08:08:19;100974.53;;;1.51;100.00
71774;BME280;59607;52.130;5.430;2024-01-16T08:10:46;100970.91;;;1.53;100.00
71774;BME280;59607;52.130;5.430;2024-01-16T08:13:13;100971.75;;;1.54;100.00
71774;BME280;59607;52.130;5.430;2024-01-16T08:15:43;100971.53;;;1.57;100.00
71774;BME280;59607;52.130;5.430;2024-01-16T08:18:10;100970.59;;;1.58;100.00
71774;BME280;59607;52.130;5.430;2024-01-16T08:20:40;100969.88;;;1.56;100.00
71774;BME280;59607;52.130;5.430;2024-01-16T08:23:11;100964.53;;;1.59;100.00
71774;BME280;59607;52.130;5.430;2024-01-16T08:25:39;100964.31;;;1.62;100.00
71774;BME280;59607;52.130;5.430;2024-01-16T08:28:08;100965.97;;;1.63;100.00
71774;BME280;59607;52.130;5.430;2024-01-16T08:30:34;100966.06;;;1.62;100.00
71774;BME280;59607;52.130;5.430;2024-01-16T08:33:03;100970.09;;;1.66;100.00
71774;BME280;59607;52.130;5.430;2024-01-16T08:35:33;100965.56;;;1.69;100.00
71774;BME280;59607;52.130;5.430;2024-01-16T08:37:59;100959.66;;;1.67;100.00
71774;BME280;59607;52.130;5.430;2024-01-16T08:40:27;100962.03;;;1.70;100.00
71774;BME280;59607;52.130;5.430;2024-01-16T08:42:56;100960.50;;;1.68;100.00
71774;BME280;59607;52.130;5.430;2024-01-16T08:45:23;100966.06;;;1.62;100.00
71774;BME280;59607;52.130;5.430;2024-01-16T08:47:56;100967.81;;;1.61;100.00
71774;BME280;59607;52.130;5.430;2024-01-16T08:50:25;100965.53;;;1.56;100.00
71774;BME280;59607;52.130;5.430;2024-01-16T08:52:52;100962.22;;;1.54;100.00
71774;BME280;59607;52.130;5.430;2024-01-16T08:55:21;100968.97;;;1.57;100.00
71774;BME280;59607;52.130;5.430;2024-01-16T08:57:50;100970.81;;;1.55;100.00
71774;BME280;59607;52.130;5.430;2024-01-16T09:00:22;100966.28;;;1.58;100.00
71774;BME280;59607;52.130;5.430;2024-01-16T09:02:51;100960.78;;;1.63;100.00
71774;BME280;59607;52.130;5.430;2024-01-16T09:05:20;100968.25;;;1.68;100.00
71774;BME280;59607;52.130;5.430;2024-01-16T09:07:51;100967.31;;;1.69;100.00
71774;BME280;59607;52.130;5.430;2024-01-16T09:10:18;100975.69;;;1.72;100.00
71774;BME280;59607;52.130;5.430;2024-01-16T09:12:48;100963.31;;;1.78;100.00
71774;BME280;59607;52.130;5.430;2024-01-16T09:15:20;100960.72;;;1.78;100.00
71774;BME280;59607;52.130;5.430;2024-01-16T09:17:49;100965.78;;;1.79;100.00
71774;BME280;59607;52.130;5.430;2024-01-16T09:20:23;100970.31;;;1.76;100.00
71774;BME280;59607;52.130;5.430;2024-01-16T09:22:50;100958.97;;;1.78;100.00
71774;BME280;59607;52.130;5.430;2024-01-16T09:25:25;100961.84;;;1.87;100.00
71774;BME280;59607;52.130;5.430;2024-01-16T09:28:07;100957.94;;;1.94;100.00
71774;BME280;59607;52.130;5.430;2024-01-16T09:30:37;100964.34;;;2.01;100.00
71774;BME280;59607;52.130;5.430;2024-01-16T09:33:06;100960.72;;;2.04;100.00
71774;BME280;59607;52.130;5.430;2024-01-16T09:35:33;100960.41;;;2.08;100.00
71774;BME280;59607;52.130;5.430;2024-01-16T09:38:11;100968.69;;;2.14;100.00
71774;BME280;59607;52.130;5.430;2024-01-16T09:40:41;100965.69;;;2.07;100.00
71774;BME280;59607;52.130;5.430;2024-01-16T09:43:13;100967.34;;;2.08;100.00
71774;BME280;59607;52.130;5.430;2024-01-16T09:45:44;100960.41;;;2.08;100.00
71774;BME280;59607;52.130;5.430;2024-01-16T09:48:15;100954.50;;;2.06;100.00
71774;BME280;59607;52.130;5.430;2024-01-16T09:50:42;100955.25;;;2.08;100.00
71774;BME280;59607;52.130;5.430;2024-01-16T09:53:08;100950.16;;;2.20;100.00
71774;BME280;59607;52.130;5.430;2024-01-16T09:55:42;100957.59;;;2.25;100.00
71774;BME280;59607;52.130;5.430;2024-01-16T09:58:12;100957.28;;;2.29;100.00
71774;BME280;59607;52.130;5.430;2024-01-16T10:00:43;100951.16;;;2.30;100.00
71774;BME280;59607;52.130;5.430;2024-01-16T10:03:14;100944.47;;;2.28;100.00
71774;BME280;59607;52.130;5.430;2024-01-16T10:05:48;100941.66;;;2.31;100.00
71774;BME280;59607;52.130;5.430;2024-01-16T10:08:15;100939.69;;;2.34;100.00
71774;BME280;59607;52.130;5.430;2024-01-16T10:10:48;100942.38;;;2.46;100.00
71774;BME280;59607;52.130;5.430;2024-01-16T10:13:18;100945.94;;;2.56;100.00
71774;BME280;59607;52.130;5.430;2024-01-16T10:16:03;100936.22;;;2.60;100.00
71774;BME280;59607;52.130;5.430;2024-01-16T10:18:32;100926.69;;;2.61;100.00
71774;BME280;59607;52.130;5.430;2024-01-16T10:21:00;100925.97;;;2.58;100.00
71774;BME280;59607;52.130;5.430;2024-01-16T10:23:32;100935.06;;;2.64;100.00
71774;BME280;59607;52.130;5.430;2024-01-16T10:26:12;100932.81;;;2.84;100.00
71774;BME280;59607;52.130;5.430;2024-01-16T10:28:40;100931.69;;;2.88;100.00
71774;BME280;59607;52.130;5.430;2024-01-16T10:31:09;100919.47;;;3.02;100.00
71774;BME280;59607;52.130;5.430;2024-01-16T10:33:50;100918.81;;;3.11;100.00
71774;BME280;59607;52.130;5.430;2024-01-16T10:36:23;100922.66;;;3.30;100.00
71774;BME280;59607;52.130;5.430;2024-01-16T10:38:50;100922.91;;;3.38;100.00
71774;BME280;59607;52.130;5.430;2024-01-16T10:41:26;100922.59;;;3.54;100.00
71774;BME280;59607;52.130;5.430;2024-01-16T10:44:08;100925.69;;;3.60;100.00
71774;BME280;59607;52.130;5.430;2024-01-16T10:46:35;100910.25;;;3.58;100.00
71774;BME280;59607;52.130;5.430;2024-01-16T10:49:05;100923.44;;;3.55;100.00
71774;BME280;59607;52.130;5.430;2024-01-16T10:51:43;100932.16;;;3.54;100.00
71774;BME280;59607;52.130;5.430;2024-01-16T10:54:14;100917.66;;;3.51;100.00
71774;BME280;59607;52.130;5.430;2024-01-16T10:56:45;100925.84;;;3.33;100.00
71774;BME280;59607;52.130;5.430;2024-01-16T11:00:00;100924.72;;;3.49;100.00
71774;BME280;59607;52.130;5.430;2024-01-16T11:03:11;100918.63;;;3.62;100.00
71774;BME280;59607;52.130;5.430;2024-01-16T11:05:41;100913.66;;;3.58;100.00
71774;BME280;59607;52.130;5.430;2024-01-16T11:08:13;100915.91;;;3.52;100.00
71774;BME280;59607;52.130;5.430;2024-01-16T11:10:47;100909.63;;;3.43;100.00
71774;BME280;59607;52.130;5.430;2024-01-16T11:13:19;100899.94;;;3.33;100.00
71774;BME280;59607;52.130;5.430;2024-01-16T11:15:53;100901.34;;;3.38;100.00
71774;BME280;59607;52.130;5.430;2024-01-16T11:18:30;100895.78;;;3.31;100.00
71774;BME280;59607;52.130;5.430;2024-01-16T11:20:59;100881.28;;;3.28;100.00
71774;BME280;59607;52.130;5.430;2024-01-16T11:23:36;100882.94;;;3.18;100.00
71774;BME280;59607;52.130;5.430;2024-01-16T11:32:00;100879.31;;;3.32;100.00
71774;BME280;59607;52.130;5.430;2024-01-16T11:34:58;100870.72;;;3.43;100.00
71774;BME280;59607;52.130;5.430;2024-01-16T11:37:29;100867.44;;;3.52;100.00
71774;BME280;59607;52.130;5.430;2024-01-16T11:40:21;100863.31;;;3.61;100.00
71774;BME280;59607;52.130;5.430;2024-01-16T11:42:49;100869.66;;;3.57;100.00
71774;BME280;59607;52.130;5.430;2024-01-16T11:48:15;100858.28;;;3.71;100.00
71774;BME280;59607;52.130;5.430;2024-01-16T11:50:48;100858.84;;;3.75;100.00
71774;BME280;59607;52.130;5.430;2024-01-16T11:56:26;100858.28;;;3.82;100.00
71774;BME280;59607;52.130;5.430;2024-01-16T12:02:14;100852.97;;;3.95;100.00
71774;BME280;59607;52.130;5.430;2024-01-16T12:04:56;100851.66;;;4.01;100.00
71774;BME280;59607;52.130;5.430;2024-01-16T12:07:23;100855.19;;;4.12;100.00
71774;BME280;59607;52.130;5.430;2024-01-16T12:09:58;100847.97;;;4.15;100.00
71774;BME280;59607;52.130;5.430;2024-01-16T12:12:25;100858.41;;;4.04;100.00
71774;BME280;59607;52.130;5.430;2024-01-16T12:14:55;100851.28;;;4.06;100.00
71774;BME280;59607;52.130;5.430;2024-01-16T12:17:21;100849.88;;;4.02;100.00
71774;BME280;59607;52.130;5.430;2024-01-16T12:19:48;100847.28;;;4.02;100.00
71774;BME280;59607;52.130;5.430;2024-01-16T12:22:17;100834.91;;;3.94;100.00
71774;BME280;59607;52.130;5.430;2024-01-16T12:24:56;100825.47;;;3.81;100.00
71774;BME280;59607;52.130;5.430;2024-01-16T12:27:27;100835.72;;;3.60;100.00
71774;BME280;59607;52.130;5.430;2024-01-16T12:30:05;100836.06;;;3.55;100.00
71774;BME280;59607;52.130;5.430;2024-01-16T12:32:35;100843.63;;;3.47;100.00
71774;BME280;59607;52.130;5.430;2024-01-16T12:35:04;100845.88;;;3.52;100.00
71774;BME280;59607;52.130;5.430;2024-01-16T12:37:35;100830.75;;;3.57;100.00
71774;BME280;59607;52.130;5.430;2024-01-16T12:40:02;100826.91;;;3.63;100.00
71774;BME280;59607;52.130;5.430;2024-01-16T12:42:32;100828.78;;;3.72;100.00
71774;BME280;59607;52.130;5.430;2024-01-16T12:45:08;100821.59;;;3.76;100.00
71774;BME280;59607;52.130;5.430;2024-01-16T12:47:35;100826.19;;;3.83;100.00
71774;BME280;59607;52.130;5.430;2024-01-16T12:50:20;100817.06;;;4.12;100.00
71774;BME280;59607;52.130;5.430;2024-01-16T12:52:49;100819.28;;;4.17;100.00
71774;BME280;59607;52.130;5.430;2024-01-16T12:55:19;100819.06;;;4.20;100.00
71774;BME280;59607;52.130;5.430;2024-01-16T13:00:42;100810.38;;;3.87;100.00
71774;BME280;59607;52.130;5.430;2024-01-16T13:03:30;100814.16;;;3.71;100.00
71774;BME280;59607;52.130;5.430;2024-01-16T13:05:58;100816.16;;;3.79;100.00
71774;BME280;59607;52.130;5.430;2024-01-16T13:08:35;100811.56;;;3.71;100.00
71774;BME280;59607;52.130;5.430;2024-01-16T13:11:07;100802.47;;;3.65;100.00
71774;BME280;59607;52.130;5.430;2024-01-16T13:13:43;100805.44;;;3.61;100.00
71774;BME280;59607;52.130;5.430;2024-01-16T13:16:16;100808.97;;;3.48;100.00
71774;BME280;59607;52.130;5.430;2024-01-16T13:18:42;100803.78;;;3.37;100.00
71774;BME280;59607;52.130;5.430;2024-01-16T13:21:12;100806.34;;;3.25;100.00
71774;BME280;59607;52.130;5.430;2024-01-16T13:23:39;100794.34;;;3.24;100.00
71774;BME280;59607;52.130;5.430;2024-01-16T13:26:06;100798.81;;;3.22;100.00